KIAB/IAB METAR and TAF weather

Enter ICAO airport designator
Station Type Date Time Source
KIAB METAR 2024/06/14 01:55 UTC NOAA

KIAB 140155Z AUTO 20009KT 10SM CLR 31/20 A2987 RMK AO2 LTG DSNT N-NE SLP101 T03140203 $


Station Type Date Time Source
KIAB Decoded METAR 2024/06/14 01:55 UTC NOAA

McConnell Air Force Base, KS, United States (KIAB) 37-37N 097-16W
Jun 13, 2024 - 09:55 PM EDT / 2024.06.14 0155 UTC
Wind: from the SSW (200 degrees) at 10 MPH (9 KT):0
Visibility: 10 mile(s):0
Sky conditions: clear
Weather: Lightning observed
Temperature: 88.5 F (31.4 C)
Dew Point: 68.5 F (20.3 C)
Relative Humidity: 51%
Pressure (altimeter): 29.87 in. Hg (1011 hPa)
ob: KIAB 140155Z AUTO 20009KT 10SM CLR 31/20 A2987 RMK AO2 LTG DSNT N-NE SLP101 T03140203
cycle: 2

Station Type Date Time Source
KIAB TAF 2024/06/14 00:07 UTC NOAA